sensor_id;sensor_type;location;lat;lon;timestamp;P1;durP1;ratioP1;P2;durP2;ratioP2
64022;SDS011;50264;52.088;5.296;2022-08-21T00:01:27;1167.0;;;232.3;;
64022;SDS011;50264;52.088;5.296;2022-08-21T00:03:05;1350.9;;;232.9;;
64022;SDS011;50264;52.088;5.296;2022-08-21T00:04:45;1145.11;;;204.8;;
64022;SDS011;50264;52.088;5.296;2022-08-21T00:06:23;1184.11;;;224.8;;
64022;SDS011;50264;52.088;5.296;2022-08-21T00:09:39;963.1;;;186.2;;
64022;SDS011;50264;52.088;5.296;2022-08-21T00:11:16;1332.4;;;231.4;;
64022;SDS011;50264;52.088;5.296;2022-08-21T00:12:54;1192.7;;;219.7;;
64022;SDS011;50264;52.088;5.296;2022-08-21T00:16:08;1091.41;;;222.0;;
64022;SDS011;50264;52.088;5.296;2022-08-21T00:17:45;1312.7;;;245.6;;
64022;SDS011;50264;52.088;5.296;2022-08-21T00:19:24;1107.8;;;201.6;;
64022;SDS011;50264;52.088;5.296;2022-08-21T00:21:02;1309.41;;;201.1;;
64022;SDS011;50264;52.088;5.296;2022-08-21T00:24:17;1287.8;;;220.2;;
64022;SDS011;50264;52.088;5.296;2022-08-21T00:25:54;1360.5;;;193.8;;
64022;SDS011;50264;52.088;5.296;2022-08-21T00:27:30;1348.6;;;257.2;;
64022;SDS011;50264;52.088;5.296;2022-08-21T00:30:43;1323.7;;;235.7;;
64022;SDS011;50264;52.088;5.296;2022-08-21T00:32:20;1205.0;;;220.4;;
64022;SDS011;50264;52.088;5.296;2022-08-21T00:33:59;1144.41;;;234.7;;
64022;SDS011;50264;52.088;5.296;2022-08-21T00:35:37;1290.11;;;205.1;;
64022;SDS011;50264;52.088;5.296;2022-08-21T00:38:54;1094.61;;;187.7;;
64022;SDS011;50264;52.088;5.296;2022-08-21T00:40:33;1397.7;;;253.4;;
64022;SDS011;50264;52.088;5.296;2022-08-21T00:42:15;1329.5;;;249.8;;
64022;SDS011;50264;52.088;5.296;2022-08-21T00:45:31;1119.8;;;183.4;;
64022;SDS011;50264;52.088;5.296;2022-08-21T00:47:08;1473.2;;;235.6;;
64022;SDS011;50264;52.088;5.296;2022-08-21T00:48:46;1125.7;;;216.1;;
64022;SDS011;50264;52.088;5.296;2022-08-21T00:50:23;1130.2;;;256.0;;
64022;SDS011;50264;52.088;5.296;2022-08-21T00:53:46;1065.3;;;223.1;;
64022;SDS011;50264;52.088;5.296;2022-08-21T00:55:22;1400.9;;;255.4;;
64022;SDS011;50264;52.088;5.296;2022-08-21T00:57:02;1167.7;;;240.1;;
64022;SDS011;50264;52.088;5.296;2022-08-21T00:58:46;1276.41;;;230.6;;
64022;SDS011;50264;52.088;5.296;2022-08-21T01:02:06;1233.7;;;235.8;;
64022;SDS011;50264;52.088;5.296;2022-08-21T01:03:45;1444.0;;;260.2;;
64022;SDS011;50264;52.088;5.296;2022-08-21T01:05:22;1278.0;;;239.1;;
64022;SDS011;50264;52.088;5.296;2022-08-21T01:07:00;1100.61;;;216.4;;
64022;SDS011;50264;52.088;5.296;2022-08-21T01:10:14;1284.3;;;210.0;;
64022;SDS011;50264;52.088;5.296;2022-08-21T01:11:52;1191.91;;;238.3;;
64022;SDS011;50264;52.088;5.296;2022-08-21T01:13:31;1474.7;;;264.4;;
64022;SDS011;50264;52.088;5.296;2022-08-21T01:16:50;1135.7;;;233.9;;
64022;SDS011;50264;52.088;5.296;2022-08-21T01:18:30;1291.41;;;226.0;;
64022;SDS011;50264;52.088;5.296;2022-08-21T01:20:08;1423.8;;;213.5;;
64022;SDS011;50264;52.088;5.296;2022-08-21T01:21:47;1497.1;;;226.9;;
64022;SDS011;50264;52.088;5.296;2022-08-21T01:25:01;1256.3;;;244.2;;
64022;SDS011;50264;52.088;5.296;2022-08-21T01:26:41;1303.5;;;248.0;;
64022;SDS011;50264;52.088;5.296;2022-08-21T01:28:19;1199.7;;;233.8;;
64022;SDS011;50264;52.088;5.296;2022-08-21T01:29:59;1481.4;;;236.5;;
64022;SDS011;50264;52.088;5.296;2022-08-21T01:33:22;1238.41;;;224.5;;
64022;SDS011;50264;52.088;5.296;2022-08-21T01:35:00;1471.9;;;208.3;;
64022;SDS011;50264;52.088;5.296;2022-08-21T01:36:39;1427.7;;;198.7;;
64022;SDS011;50264;52.088;5.296;2022-08-21T01:39:53;1256.2;;;192.2;;
64022;SDS011;50264;52.088;5.296;2022-08-21T01:41:29;1327.6;;;212.5;;
64022;SDS011;50264;52.088;5.296;2022-08-21T01:43:06;1360.4;;;231.5;;
64022;SDS011;50264;52.088;5.296;2022-08-21T01:44:43;1257.11;;;203.3;;
64022;SDS011;50264;52.088;5.296;2022-08-21T01:47:56;1247.7;;;191.3;;
64022;SDS011;50264;52.088;5.296;2022-08-21T01:49:32;1353.3;;;236.1;;
64022;SDS011;50264;52.088;5.296;2022-08-21T01:51:09;1381.1;;;206.0;;
64022;SDS011;50264;52.088;5.296;2022-08-21T01:54:24;1344.6;;;212.8;;
64022;SDS011;50264;52.088;5.296;2022-08-21T01:56:03;1285.91;;;240.2;;
64022;SDS011;50264;52.088;5.296;2022-08-21T01:57:42;1389.6;;;237.8;;
64022;SDS011;50264;52.088;5.296;2022-08-21T01:59:19;1430.2;;;212.3;;
64022;SDS011;50264;52.088;5.296;2022-08-21T02:02:34;1256.41;;;236.9;;
64022;SDS011;50264;52.088;5.296;2022-08-21T02:04:10;1318.0;;;237.7;;
64022;SDS011;50264;52.088;5.296;2022-08-21T02:05:48;1243.41;;;214.4;;
64022;SDS011;50264;52.088;5.296;2022-08-21T02:09:01;1180.3;;;226.4;;
64022;SDS011;50264;52.088;5.296;2022-08-21T02:10:41;1271.2;;;228.5;;
64022;SDS011;50264;52.088;5.296;2022-08-21T02:12:17;1144.41;;;228.3;;
64022;SDS011;50264;52.088;5.296;2022-08-21T02:15:30;1229.7;;;242.3;;
64022;SDS011;50264;52.088;5.296;2022-08-21T02:17:07;1106.3;;;231.1;;
64022;SDS011;50264;52.088;5.296;2022-08-21T02:18:43;1012.1;;;206.7;;
64022;SDS011;50264;52.088;5.296;2022-08-21T02:20:20;1304.7;;;215.1;;
64022;SDS011;50264;52.088;5.296;2022-08-21T02:23:39;1261.61;;;240.6;;
64022;SDS011;50264;52.088;5.296;2022-08-21T02:25:15;1174.41;;;212.8;;
64022;SDS011;50264;52.088;5.296;2022-08-21T02:26:54;1264.91;;;235.6;;
64022;SDS011;50264;52.088;5.296;2022-08-21T02:30:08;1264.91;;;235.6;;
64022;SDS011;50264;52.088;5.296;2022-08-21T02:31:47;1058.41;;;237.4;;
64022;SDS011;50264;52.088;5.296;2022-08-21T02:33:24;1185.0;;;219.8;;
64022;SDS011;50264;52.088;5.296;2022-08-21T02:35:01;1151.91;;;222.6;;
64022;SDS011;50264;52.088;5.296;2022-08-21T02:38:16;1436.6;;;201.0;;
64022;SDS011;50264;52.088;5.296;2022-08-21T02:39:59;1363.7;;;203.9;;
64022;SDS011;50264;52.088;5.296;2022-08-21T02:41:36;1249.5;;;217.6;;
64022;SDS011;50264;52.088;5.296;2022-08-21T02:43:12;1322.8;;;242.7;;
64022;SDS011;50264;52.088;5.296;2022-08-21T02:46:27;1316.9;;;203.4;;
64022;SDS011;50264;52.088;5.296;2022-08-21T02:48:04;1245.61;;;211.9;;
64022;SDS011;50264;52.088;5.296;2022-08-21T02:49:44;1375.4;;;219.6;;
64022;SDS011;50264;52.088;5.296;2022-08-21T02:52:58;1375.4;;;219.6;;
64022;SDS011;50264;52.088;5.296;2022-08-21T02:54:36;1458.4;;;261.61;;
64022;SDS011;50264;52.088;5.296;2022-08-21T02:56:14;1374.4;;;232.3;;
64022;SDS011;50264;52.088;5.296;2022-08-21T02:57:55;1185.8;;;250.8;;
64022;SDS011;50264;52.088;5.296;2022-08-21T03:01:10;1313.4;;;243.9;;
64022;SDS011;50264;52.088;5.296;2022-08-21T03:02:48;1308.41;;;238.2;;
64022;SDS011;50264;52.088;5.296;2022-08-21T03:04:25;1268.61;;;197.7;;
64022;SDS011;50264;52.088;5.296;2022-08-21T03:07:41;1087.8;;;216.5;;
64022;SDS011;50264;52.088;5.296;2022-08-21T03:09:19;1056.8;;;216.2;;
64022;SDS011;50264;52.088;5.296;2022-08-21T03:10:55;1383.9;;;239.7;;
64022;SDS011;50264;52.088;5.296;2022-08-21T03:12:32;1490.8;;;226.4;;
64022;SDS011;50264;52.088;5.296;2022-08-21T03:15:45;1318.4;;;215.3;;
64022;SDS011;50264;52.088;5.296;2022-08-21T03:17:22;1261.41;;;240.9;;
64022;SDS011;50264;52.088;5.296;2022-08-21T03:19:00;1331.1;;;235.3;;
64022;SDS011;50264;52.088;5.296;2022-08-21T03:22:17;926.4;;;214.9;;
64022;SDS011;50264;52.088;5.296;2022-08-21T03:23:54;1488.3;;;269.0;;
64022;SDS011;50264;52.088;5.296;2022-08-21T03:25:32;1180.91;;;249.1;;
64022;SDS011;50264;52.088;5.296;2022-08-21T03:27:12;1250.91;;;241.6;;
64022;SDS011;50264;52.088;5.296;2022-08-21T03:30:27;1285.41;;;258.7;;
64022;SDS011;50264;52.088;5.296;2022-08-21T03:32:04;1303.91;;;230.1;;
64022;SDS011;50264;52.088;5.296;2022-08-21T03:33:41;1393.0;;;231.2;;
64022;SDS011;50264;52.088;5.296;2022-08-21T03:36:56;1160.41;;;239.2;;
64022;SDS011;50264;52.088;5.296;2022-08-21T03:38:33;1187.91;;;235.7;;
64022;SDS011;50264;52.088;5.296;2022-08-21T03:40:12;953.4;;;222.8;;
64022;SDS011;50264;52.088;5.296;2022-08-21T03:41:52;1270.41;;;250.6;;
64022;SDS011;50264;52.088;5.296;2022-08-21T03:45:07;1182.0;;;234.4;;
64022;SDS011;50264;52.088;5.296;2022-08-21T03:46:45;1354.1;;;228.5;;
64022;SDS011;50264;52.088;5.296;2022-08-21T03:48:21;1343.9;;;240.9;;
64022;SDS011;50264;52.088;5.296;2022-08-21T03:51:36;1396.9;;;244.5;;
64022;SDS011;50264;52.088;5.296;2022-08-21T03:53:14;1410.1;;;249.8;;
64022;SDS011;50264;52.088;5.296;2022-08-21T03:54:51;1224.41;;;239.9;;
64022;SDS011;50264;52.088;5.296;2022-08-21T03:56:28;1175.0;;;222.3;;
64022;SDS011;50264;52.088;5.296;2022-08-21T03:59:43;1277.41;;;241.2;;
64022;SDS011;50264;52.088;5.296;2022-08-21T04:01:20;1265.5;;;243.2;;
64022;SDS011;50264;52.088;5.296;2022-08-21T04:02:56;1265.5;;;243.2;;
64022;SDS011;50264;52.088;5.296;2022-08-21T04:06:10;1251.41;;;261.11;;
64022;SDS011;50264;52.088;5.296;2022-08-21T04:07:46;1426.0;;;268.3;;
64022;SDS011;50264;52.088;5.296;2022-08-21T04:09:24;1193.91;;;244.7;;
64022;SDS011;50264;52.088;5.296;2022-08-21T04:12:39;1263.7;;;235.6;;
64022;SDS011;50264;52.088;5.296;2022-08-21T04:14:15;1407.9;;;228.8;;
64022;SDS011;50264;52.088;5.296;2022-08-21T04:15:53;1190.8;;;237.4;;
64022;SDS011;50264;52.088;5.296;2022-08-21T04:17:30;1152.61;;;240.1;;
64022;SDS011;50264;52.088;5.296;2022-08-21T04:20:44;1289.2;;;258.8;;
64022;SDS011;50264;52.088;5.296;2022-08-21T04:22:24;988.2;;;210.0;;
64022;SDS011;50264;52.088;5.296;2022-08-21T04:24:00;1076.3;;;190.5;;
64022;SDS011;50264;52.088;5.296;2022-08-21T04:27:13;1064.0;;;191.5;;
64022;SDS011;50264;52.088;5.296;2022-08-21T04:28:49;1204.61;;;232.9;;
64022;SDS011;50264;52.088;5.296;2022-08-21T04:30:25;1140.0;;;198.5;;
64022;SDS011;50264;52.088;5.296;2022-08-21T04:32:03;1547.7;;;217.6;;
64022;SDS011;50264;52.088;5.296;2022-08-21T04:35:17;1223.5;;;235.6;;
64022;SDS011;50264;52.088;5.296;2022-08-21T04:36:56;1184.5;;;244.9;;
64022;SDS011;50264;52.088;5.296;2022-08-21T04:38:32;1332.6;;;247.2;;
64022;SDS011;50264;52.088;5.296;2022-08-21T04:41:49;1233.7;;;259.61;;
64022;SDS011;50264;52.088;5.296;2022-08-21T04:43:25;1279.91;;;245.4;;
64022;SDS011;50264;52.088;5.296;2022-08-21T04:45:01;1353.3;;;256.9;;
64022;SDS011;50264;52.088;5.296;2022-08-21T04:46:38;1183.8;;;252.0;;
64022;SDS011;50264;52.088;5.296;2022-08-21T04:49:55;1373.4;;;247.8;;
64022;SDS011;50264;52.088;5.296;2022-08-21T04:51:32;1423.1;;;265.0;;
64022;SDS011;50264;52.088;5.296;2022-08-21T04:53:13;1075.7;;;219.4;;
64022;SDS011;50264;52.088;5.296;2022-08-21T04:56:31;1340.1;;;243.8;;
64022;SDS011;50264;52.088;5.296;2022-08-21T04:58:17;1367.4;;;247.6;;
64022;SDS011;50264;52.088;5.296;2022-08-21T04:59:56;1350.6;;;256.5;;
64022;SDS011;50264;52.088;5.296;2022-08-21T05:01:34;1247.5;;;210.8;;
64022;SDS011;50264;52.088;5.296;2022-08-21T05:04:53;1381.8;;;206.9;;
64022;SDS011;50264;52.088;5.296;2022-08-21T05:06:31;1380.9;;;217.9;;
64022;SDS011;50264;52.088;5.296;2022-08-21T05:08:13;1416.6;;;231.4;;
64022;SDS011;50264;52.088;5.296;2022-08-21T05:09:54;1288.5;;;267.4;;
64022;SDS011;50264;52.088;5.296;2022-08-21T05:13:10;1390.1;;;267.2;;
64022;SDS011;50264;52.088;5.296;2022-08-21T05:14:48;1115.11;;;241.3;;
64022;SDS011;50264;52.088;5.296;2022-08-21T05:16:25;1538.1;;;237.2;;
64022;SDS011;50264;52.088;5.296;2022-08-21T05:18:03;1184.91;;;228.5;;
64022;SDS011;50264;52.088;5.296;2022-08-21T05:21:16;1353.8;;;238.1;;
64022;SDS011;50264;52.088;5.296;2022-08-21T05:22:52;1428.5;;;256.4;;
64022;SDS011;50264;52.088;5.296;2022-08-21T05:24:30;1415.9;;;262.9;;
64022;SDS011;50264;52.088;5.296;2022-08-21T05:27:43;1328.1;;;255.1;;
64022;SDS011;50264;52.088;5.296;2022-08-21T05:29:20;1305.11;;;230.1;;
64022;SDS011;50264;52.088;5.296;2022-08-21T05:30:56;1074.1;;;225.7;;
64022;SDS011;50264;52.088;5.296;2022-08-21T05:34:12;1498.8;;;247.8;;
64022;SDS011;50264;52.088;5.296;2022-08-21T05:35:49;1308.3;;;251.4;;
64022;SDS011;50264;52.088;5.296;2022-08-21T05:37:27;1417.5;;;232.9;;
64022;SDS011;50264;52.088;5.296;2022-08-21T05:39:03;1117.3;;;228.0;;
64022;SDS011;50264;52.088;5.296;2022-08-21T05:42:16;1181.7;;;213.2;;
64022;SDS011;50264;52.088;5.296;2022-08-21T05:43:53;1263.11;;;235.1;;
64022;SDS011;50264;52.088;5.296;2022-08-21T05:45:30;1396.7;;;251.7;;
64022;SDS011;50264;52.088;5.296;2022-08-21T05:48:46;1275.61;;;217.9;;
64022;SDS011;50264;52.088;5.296;2022-08-21T05:50:22;1283.61;;;224.9;;
64022;SDS011;50264;52.088;5.296;2022-08-21T05:51:59;1052.8;;;221.7;;
64022;SDS011;50264;52.088;5.296;2022-08-21T05:53:37;1315.9;;;234.1;;
64022;SDS011;50264;52.088;5.296;2022-08-21T05:56:51;1348.3;;;246.4;;
64022;SDS011;50264;52.088;5.296;2022-08-21T05:58:27;1248.41;;;230.9;;
64022;SDS011;50264;52.088;5.296;2022-08-21T06:00:04;1431.2;;;228.7;;
64022;SDS011;50264;52.088;5.296;2022-08-21T06:03:18;1208.0;;;210.3;;
64022;SDS011;50264;52.088;5.296;2022-08-21T06:05:00;1243.3;;;245.6;;
64022;SDS011;50264;52.088;5.296;2022-08-21T06:06:37;1348.1;;;225.1;;
64022;SDS011;50264;52.088;5.296;2022-08-21T06:08:13;1193.61;;;247.7;;
64022;SDS011;50264;52.088;5.296;2022-08-21T06:11:26;1362.8;;;260.7;;
64022;SDS011;50264;52.088;5.296;2022-08-21T06:13:04;1282.5;;;212.1;;
64022;SDS011;50264;52.088;5.296;2022-08-21T06:14:41;1267.2;;;199.6;;
64022;SDS011;50264;52.088;5.296;2022-08-21T06:17:54;1308.91;;;242.5;;
64022;SDS011;50264;52.088;5.296;2022-08-21T06:19:32;1293.8;;;231.2;;
64022;SDS011;50264;52.088;5.296;2022-08-21T06:21:09;1546.2;;;248.8;;
64022;SDS011;50264;52.088;5.296;2022-08-21T06:24:22;1395.9;;;261.2;;
64022;SDS011;50264;52.088;5.296;2022-08-21T06:25:59;1228.3;;;236.4;;
64022;SDS011;50264;52.088;5.296;2022-08-21T06:27:36;1428.6;;;251.5;;
64022;SDS011;50264;52.088;5.296;2022-08-21T06:29:16;1328.8;;;239.2;;
64022;SDS011;50264;52.088;5.296;2022-08-21T06:32:30;1219.3;;;215.2;;
64022;SDS011;50264;52.088;5.296;2022-08-21T06:34:07;1304.11;;;210.8;;
64022;SDS011;50264;52.088;5.296;2022-08-21T06:35:44;1364.3;;;244.0;;
64022;SDS011;50264;52.088;5.296;2022-08-21T06:38:58;1451.7;;;246.4;;
64022;SDS011;50264;52.088;5.296;2022-08-21T06:40:34;1424.8;;;255.0;;
64022;SDS011;50264;52.088;5.296;2022-08-21T06:42:12;1455.6;;;250.9;;
64022;SDS011;50264;52.088;5.296;2022-08-21T06:43:50;1459.9;;;205.1;;
64022;SDS011;50264;52.088;5.296;2022-08-21T06:47:04;1474.5;;;255.3;;
64022;SDS011;50264;52.088;5.296;2022-08-21T06:48:41;1481.8;;;255.3;;
64022;SDS011;50264;52.088;5.296;2022-08-21T06:50:17;1533.5;;;258.2;;
64022;SDS011;50264;52.088;5.296;2022-08-21T06:53:31;1375.7;;;255.2;;
64022;SDS011;50264;52.088;5.296;2022-08-21T06:55:09;1400.8;;;242.4;;
64022;SDS011;50264;52.088;5.296;2022-08-21T06:56:48;1619.3;;;258.61;;
64022;SDS011;50264;52.088;5.296;2022-08-21T06:58:26;1527.2;;;227.5;;
64022;SDS011;50264;52.088;5.296;2022-08-21T07:01:43;1489.9;;;223.8;;
64022;SDS011;50264;52.088;5.296;2022-08-21T07:03:21;1597.9;;;259.11;;
64022;SDS011;50264;52.088;5.296;2022-08-21T07:05:00;1575.2;;;236.0;;
64022;SDS011;50264;52.088;5.296;2022-08-21T07:08:15;1637.4;;;210.6;;
64022;SDS011;50264;52.088;5.296;2022-08-21T07:09:52;1603.3;;;222.7;;
64022;SDS011;50264;52.088;5.296;2022-08-21T07:11:28;1618.2;;;228.0;;
64022;SDS011;50264;52.088;5.296;2022-08-21T07:13:05;1655.1;;;242.3;;
64022;SDS011;50264;52.088;5.296;2022-08-21T07:16:18;1890.9;;;250.3;;
64022;SDS011;50264;52.088;5.296;2022-08-21T07:17:57;1695.3;;;227.4;;
64022;SDS011;50264;52.088;5.296;2022-08-21T07:19:34;1964.6;;;244.2;;
64022;SDS011;50264;52.088;5.296;2022-08-21T07:22:47;1864.9;;;227.6;;
64022;SDS011;50264;52.088;5.296;2022-08-21T07:24:23;1853.4;;;241.4;;
64022;SDS011;50264;52.088;5.296;2022-08-21T07:26:00;1767.7;;;232.9;;
64022;SDS011;50264;52.088;5.296;2022-08-21T07:29:13;1810.9;;;229.5;;
64022;SDS011;50264;52.088;5.296;2022-08-21T07:30:50;1996.0;;;243.2;;
64022;SDS011;50264;52.088;5.296;2022-08-21T07:32:29;1814.3;;;239.3;;
64022;SDS011;50264;52.088;5.296;2022-08-21T07:34:06;1999.9;;;261.8;;
64022;SDS011;50264;52.088;5.296;2022-08-21T07:37:20;1922.2;;;240.1;;
64022;SDS011;50264;52.088;5.296;2022-08-21T07:38:57;1922.2;;;240.1;;
64022;SDS011;50264;52.088;5.296;2022-08-21T07:40:35;1891.9;;;234.8;;
64022;SDS011;50264;52.088;5.296;2022-08-21T07:43:47;1999.9;;;238.5;;
64022;SDS011;50264;52.088;5.296;2022-08-21T07:45:24;1908.7;;;222.6;;
64022;SDS011;50264;52.088;5.296;2022-08-21T07:47:02;1856.9;;;226.4;;
64022;SDS011;50264;52.088;5.296;2022-08-21T07:48:40;1999.9;;;234.3;;
64022;SDS011;50264;52.088;5.296;2022-08-21T07:51:54;1999.9;;;245.1;;
64022;SDS011;50264;52.088;5.296;2022-08-21T07:53:31;1801.9;;;238.2;;
64022;SDS011;50264;52.088;5.296;2022-08-21T07:55:08;1999.9;;;243.2;;
64022;SDS011;50264;52.088;5.296;2022-08-21T07:58:23;1999.9;;;236.9;;
64022;SDS011;50264;52.088;5.296;2022-08-21T08:00:00;1999.9;;;246.2;;
64022;SDS011;50264;52.088;5.296;2022-08-21T08:01:36;1999.9;;;231.4;;
64022;SDS011;50264;52.088;5.296;2022-08-21T08:04:50;1999.9;;;255.3;;
64022;SDS011;50264;52.088;5.296;2022-08-21T08:06:26;1999.9;;;249.7;;
64022;SDS011;50264;52.088;5.296;2022-08-21T08:08:04;1999.9;;;241.7;;
64022;SDS011;50264;52.088;5.296;2022-08-21T08:09:41;1999.9;;;238.6;;
64022;SDS011;50264;52.088;5.296;2022-08-21T08:12:54;1999.9;;;237.3;;
64022;SDS011;50264;52.088;5.296;2022-08-21T08:14:32;1999.9;;;243.2;;
64022;SDS011;50264;52.088;5.296;2022-08-21T08:16:08;1999.9;;;243.8;;
64022;SDS011;50264;52.088;5.296;2022-08-21T08:19:23;1999.9;;;267.8;;
64022;SDS011;50264;52.088;5.296;2022-08-21T08:21:01;1999.9;;;247.5;;
64022;SDS011;50264;52.088;5.296;2022-08-21T08:22:39;1999.9;;;295.41;;
64022;SDS011;50264;52.088;5.296;2022-08-21T08:24:16;1999.9;;;248.0;;
64022;SDS011;50264;52.088;5.296;2022-08-21T08:27:29;1999.9;;;263.61;;
64022;SDS011;50264;52.088;5.296;2022-08-21T08:29:07;1999.9;;;252.4;;
64022;SDS011;50264;52.088;5.296;2022-08-21T08:30:44;1999.9;;;255.1;;
64022;SDS011;50264;52.088;5.296;2022-08-21T08:33:59;1999.9;;;279.3;;
64022;SDS011;50264;52.088;5.296;2022-08-21T08:35:36;1999.9;;;247.8;;
64022;SDS011;50264;52.088;5.296;2022-08-21T08:37:12;1999.9;;;265.8;;
64022;SDS011;50264;52.088;5.296;2022-08-21T08:40:27;1999.9;;;251.1;;
64022;SDS011;50264;52.088;5.296;2022-08-21T08:42:20;1999.9;;;249.3;;
64022;SDS011;50264;52.088;5.296;2022-08-21T08:44:05;1999.9;;;252.9;;
64022;SDS011;50264;52.088;5.296;2022-08-21T08:45:45;1999.9;;;258.0;;
64022;SDS011;50264;52.088;5.296;2022-08-21T08:47:26;1999.9;;;261.2;;
64022;SDS011;50264;52.088;5.296;2022-08-21T08:50:51;1999.9;;;273.11;;
64022;SDS011;50264;52.088;5.296;2022-08-21T08:52:33;1999.9;;;266.9;;
64022;SDS011;50264;52.088;5.296;2022-08-21T08:54:14;1999.9;;;275.3;;
64022;SDS011;50264;52.088;5.296;2022-08-21T08:55:57;1999.9;;;267.5;;
64022;SDS011;50264;52.088;5.296;2022-08-21T08:59:17;1999.9;;;285.7;;
64022;SDS011;50264;52.088;5.296;2022-08-21T09:01:05;1999.9;;;289.3;;
64022;SDS011;50264;52.088;5.296;2022-08-21T09:02:51;1999.9;;;289.2;;
64022;SDS011;50264;52.088;5.296;2022-08-21T09:04:31;1999.9;;;305.5;;
64022;SDS011;50264;52.088;5.296;2022-08-21T09:06:18;1999.9;;;297.8;;
64022;SDS011;50264;52.088;5.296;2022-08-21T09:08:12;1999.9;;;289.91;;
64022;SDS011;50264;52.088;5.296;2022-08-21T09:11:56;1999.9;;;294.11;;
64022;SDS011;50264;52.088;5.296;2022-08-21T09:13:43;1999.9;;;293.0;;
64022;SDS011;50264;52.088;5.296;2022-08-21T09:15:29;1999.9;;;302.7;;
64022;SDS011;50264;52.088;5.296;2022-08-21T09:17:13;1999.9;;;305.11;;
64022;SDS011;50264;52.088;5.296;2022-08-21T09:19:18;1999.9;;;280.41;;
64022;SDS011;50264;52.088;5.296;2022-08-21T09:21:15;1999.9;;;301.61;;
64022;SDS011;50264;52.088;5.296;2022-08-21T09:23:04;1999.9;;;308.11;;
64022;SDS011;50264;52.088;5.296;2022-08-21T09:24:59;1999.9;;;316.3;;
64022;SDS011;50264;52.088;5.296;2022-08-21T09:28:33;1999.9;;;298.0;;
64022;SDS011;50264;52.088;5.296;2022-08-21T09:30:12;1999.9;;;306.91;;
64022;SDS011;50264;52.088;5.296;2022-08-21T09:31:49;1999.9;;;278.5;;
64022;SDS011;50264;52.088;5.296;2022-08-21T09:33:26;1999.9;;;284.7;;
64022;SDS011;50264;52.088;5.296;2022-08-21T09:36:47;1999.9;;;277.3;;
64022;SDS011;50264;52.088;5.296;2022-08-21T09:38:28;1999.9;;;285.41;;
64022;SDS011;50264;52.088;5.296;2022-08-21T09:40:15;1999.9;;;278.3;;
64022;SDS011;50264;52.088;5.296;2022-08-21T09:42:07;1999.9;;;302.0;;
64022;SDS011;50264;52.088;5.296;2022-08-21T09:43:51;1999.9;;;286.3;;
64022;SDS011;50264;52.088;5.296;2022-08-21T09:47:07;1999.9;;;286.41;;
64022;SDS011;50264;52.088;5.296;2022-08-21T09:48:47;1999.9;;;284.3;;
64022;SDS011;50264;52.088;5.296;2022-08-21T09:50:27;1999.9;;;296.7;;
64022;SDS011;50264;52.088;5.296;2022-08-21T09:52:10;1999.9;;;295.2;;
64022;SDS011;50264;52.088;5.296;2022-08-21T09:58:46;1999.9;;;281.8;;
64022;SDS011;50264;52.088;5.296;2022-08-21T10:00:26;1999.9;;;287.11;;
64022;SDS011;50264;52.088;5.296;2022-08-21T10:04:03;1999.9;;;281.61;;
64022;SDS011;50264;52.088;5.296;2022-08-21T10:05:50;1930.7;;;253.6;;
64022;SDS011;50264;52.088;5.296;2022-08-21T10:07:31;1999.9;;;273.7;;
64022;SDS011;50264;52.088;5.296;2022-08-21T10:09:13;1999.9;;;271.61;;
64022;SDS011;50264;52.088;5.296;2022-08-21T10:10:55;1999.9;;;267.7;;
64022;SDS011;50264;52.088;5.296;2022-08-21T10:14:34;1999.9;;;261.9;;
64022;SDS011;50264;52.088;5.296;2022-08-21T10:16:35;1999.9;;;259.8;;
64022;SDS011;50264;52.088;5.296;2022-08-21T10:18:29;1999.9;;;269.9;;
64022;SDS011;50264;52.088;5.296;2022-08-21T10:20:16;1999.9;;;301.7;;
64022;SDS011;50264;52.088;5.296;2022-08-21T10:22:00;1999.9;;;277.61;;
64022;SDS011;50264;52.088;5.296;2022-08-21T10:23:51;1999.9;;;266.3;;
64022;SDS011;50264;52.088;5.296;2022-08-21T10:25:38;1999.9;;;266.3;;
64022;SDS011;50264;52.088;5.296;2022-08-21T10:29:16;1999.9;;;271.11;;
64022;SDS011;50264;52.088;5.296;2022-08-21T10:31:18;1999.9;;;268.11;;
64022;SDS011;50264;52.088;5.296;2022-08-21T10:33:10;1999.9;;;284.61;;
64022;SDS011;50264;52.088;5.296;2022-08-21T10:35:00;1999.9;;;268.9;;
64022;SDS011;50264;52.088;5.296;2022-08-21T10:36:58;1999.9;;;284.7;;
64022;SDS011;50264;52.088;5.296;2022-08-21T10:38:52;1999.9;;;293.61;;
64022;SDS011;50264;52.088;5.296;2022-08-21T10:40:34;1999.9;;;316.0;;
64022;SDS011;50264;52.088;5.296;2022-08-21T10:42:21;1999.9;;;331.6;;
64022;SDS011;50264;52.088;5.296;2022-08-21T10:46:00;1999.9;;;344.7;;
64022;SDS011;50264;52.088;5.296;2022-08-21T10:47:54;1999.9;;;372.1;;
64022;SDS011;50264;52.088;5.296;2022-08-21T10:49:38;1999.9;;;340.0;;
64022;SDS011;50264;52.088;5.296;2022-08-21T10:51:23;1999.9;;;323.3;;
64022;SDS011;50264;52.088;5.296;2022-08-21T10:53:15;1999.9;;;311.61;;
64022;SDS011;50264;52.088;5.296;2022-08-21T10:55:08;1999.9;;;277.5;;
64022;SDS011;50264;52.088;5.296;2022-08-21T10:58:34;1999.9;;;287.41;;
64022;SDS011;50264;52.088;5.296;2022-08-21T11:00:17;1999.9;;;295.8;;
64022;SDS011;50264;52.088;5.296;2022-08-21T11:01:58;1999.9;;;303.5;;
64022;SDS011;50264;52.088;5.296;2022-08-21T11:03:44;1999.9;;;334.0;;
64022;SDS011;50264;52.088;5.296;2022-08-21T11:05:28;1945.6;;;278.0;;
64022;SDS011;50264;52.088;5.296;2022-08-21T11:08:57;1646.9;;;257.2;;
64022;SDS011;50264;52.088;5.296;2022-08-21T11:10:47;581.21;;;103.2;;
64022;SDS011;50264;52.088;5.296;2022-08-21T11:12:30;532.5;;;103.9;;
64022;SDS011;50264;52.088;5.296;2022-08-21T11:14:20;1352.0;;;229.2;;
64022;SDS011;50264;52.088;5.296;2022-08-21T11:16:09;1144.7;;;220.3;;
64022;SDS011;50264;52.088;5.296;2022-08-21T11:17:59;260.7;;;77.5;;
64022;SDS011;50264;52.088;5.296;2022-08-21T11:21:48;201.3;;;67.2;;
64022;SDS011;50264;52.088;5.296;2022-08-21T11:23:31;153.9;;;72.41;;
64022;SDS011;50264;52.088;5.296;2022-08-21T11:25:20;147.21;;;52.1;;
64022;SDS011;50264;52.088;5.296;2022-08-21T11:27:03;237.2;;;81.11;;
64022;SDS011;50264;52.088;5.296;2022-08-21T11:28:55;215.2;;;74.8;;
64022;SDS011;50264;52.088;5.296;2022-08-21T11:30:43;255.3;;;101.6;;
64022;SDS011;50264;52.088;5.296;2022-08-21T11:32:40;325.3;;;92.1;;
64022;SDS011;50264;52.088;5.296;2022-08-21T11:34:44;360.6;;;127.2;;
64022;SDS011;50264;52.088;5.296;2022-08-21T11:38:20;685.8;;;196.7;;
64022;SDS011;50264;52.088;5.296;2022-08-21T11:40:10;966.9;;;247.7;;
64022;SDS011;50264;52.088;5.296;2022-08-21T11:42:01;1192.41;;;297.8;;
64022;SDS011;50264;52.088;5.296;2022-08-21T11:43:49;873.7;;;242.3;;
64022;SDS011;50264;52.088;5.296;2022-08-21T11:45:36;847.8;;;199.4;;
64022;SDS011;50264;52.088;5.296;2022-08-21T11:47:32;583.9;;;175.0;;
64022;SDS011;50264;52.088;5.296;2022-08-21T11:49:31;625.6;;;143.0;;
64022;SDS011;50264;52.088;5.296;2022-08-21T11:51:24;749.3;;;182.0;;
64022;SDS011;50264;52.088;5.296;2022-08-21T11:55:07;628.4;;;199.0;;
64022;SDS011;50264;52.088;5.296;2022-08-21T11:56:51;1735.6;;;362.7;;
64022;SDS011;50264;52.088;5.296;2022-08-21T11:58:35;1999.9;;;406.1;;
64022;SDS011;50264;52.088;5.296;2022-08-21T12:00:16;1999.9;;;657.3;;
64022;SDS011;50264;52.088;5.296;2022-08-21T12:01:58;1999.9;;;553.9;;
64022;SDS011;50264;52.088;5.296;2022-08-21T12:05:23;1999.9;;;494.6;;